Historyczne dane pomiarowe

Dodano dane terminowe – wersja testowa.

Dane z okresu 1951-2019

Wersja bazy: 1.34 [2019-03-16, lista zmian], aktualizacja planowana na 2019-04-15

Dane meteo z obszaru Polski uzyskane na podstawie danych udostępnionych przez Instytut Meteorologii i Gospodarki Wodnej – Państwowy Instytut Badawczy.

 

Wybierz Datę:    

       

TemperaturaWilgotnośćZachmurzenieWiatrCiśnienieWidzialnośćZjawiska
 Data    tng td wb rh cc ccl cl cm ch dir g1 g2 mslp ppp      
1999-06-21 00:00:00 15.9--- 12.3 13.879wxwxwx2wx--1007.5 984.9 0.0---wx
1999-06-21 01:00:00 15.7--- 11.4 13.275wxwxwx2wx--1006.8 984.2----wx
1999-06-21 02:00:00 15.5--- 11.5 13.277wxwxwx3wx--1006.4 983.8----wx
1999-06-21 03:00:00 14.5--- 12.3 13.286wxwxwxwx3wx--1006.2 983.5----wx
1999-06-21 04:00:00 14.9--- 12.2 13.384wxwxwx2wx--1005.9 983.2----wxw1
1999-06-21 05:00:00 14.6--- 12.7 13.589wxwxwx1wx--1005.8 983.1----wx
1999-06-21 06:00:00 14.6--- 12.7 13.589wxwxwxwx2wx--1005.7 983.0 0.0---wxw1
1999-06-21 07:00:00 13.7--- 12.7 13.194wxwxwx4wx--1006.1 983.3----wx
1999-06-21 08:00:00 13.0--- 11.2 12.089wxwxwx3wx--1006.5 983.7----wxw1
1999-06-21 09:00:00 14.0--- 11.2 12.483wxwxwx4wx--1007.2 984.4----wxw1
1999-06-21 10:00:00 14.0--- 10.8 12.281wxwxwx3wx--1007.7 984.9----wx
1999-06-21 11:00:00 13.7--- 10.3 11.880wxwxwxwx3wx--1008.2 985.4----wx
1999-06-21 12:00:00 14.3--- 10.6 12.278wxwxwx4wx--1008.7 985.9 0.3---wxw1
1999-06-21 13:00:00 13.8--- 10.8 12.182wxwxwx3wx--1009.0 986.2----wx
1999-06-21 14:00:00 14.6--- 11.1 12.680wxwxwxwx3wx--1009.1 986.3----wx
1999-06-21 15:00:00 14.7--- 9.7 11.972wxwxwxwxwx3wx--1009.1 986.3----wxw1
1999-06-21 16:00:00 15.0--- 9.6 12.070wxwxwxwxwx4wx--1009.6 986.8----wx
1999-06-21 17:00:00 14.5--- 10.0 12.075wxwxwxwxwx2wx--1009.9 987.1----wx
1999-06-21 18:00:00 14.2--- 8.9 11.370wxwxwxwxwx1wx--1010.5 987.7 0.0---wxw1
1999-06-21 19:00:00 13.5--- 9.3 11.276wxwxwxwx1wx--1011.0 988.1----wx
1999-06-21 20:00:00 13.1--- 8.0 10.471wxwxwxwx2wx--1011.4 988.5----wx
1999-06-21 21:00:00 12.4--- 8.3 10.276wxwxwx2wx--1011.7 988.7----wx
1999-06-21 22:00:00 11.9--- 8.1 9.978wxwxwx2wx--1012.1 989.0----wx
1999-06-21 23:00:00 11.7--- 7.9 9.778wxwxwx2wx--1012.3 989.2----wx

 

Źródłem pochodzenia danych jest Instytut Meteorologii i Gospodarki Wodnej – Państwowy Instytut Badawczy. Dane Instytutu Meteorologii i Gospodarki Wodnej – Państwowego Instytutu Badawczego zostały przetworzone.

Dane źródłowe można odnaleźć na stronie https://dane.imgw.pl